createdAt,value
2023-10-20T14:52:22.475Z,14.30
2023-10-20T14:54:49.300Z,14.20
2023-10-20T14:57:17.080Z,14.30
2023-10-20T14:59:43.876Z,14.30
2023-10-20T15:02:10.789Z,14.40
2023-10-20T15:04:37.706Z,14.30
2023-10-20T15:07:05.335Z,14.20
2023-10-20T15:09:32.978Z,14.30
2023-10-20T15:11:59.913Z,14.20
2023-10-20T15:14:26.848Z,14.30
2023-10-20T15:16:54.870Z,14.20
2023-10-20T15:19:22.740Z,14.10
2023-10-20T15:21:49.640Z,14.10
2023-10-20T15:24:16.499Z,14.10
2023-10-20T15:26:46.358Z,14.20
2023-10-20T15:29:13.538Z,14.00
2023-10-20T15:31:40.838Z,14.20
2023-10-20T15:34:07.860Z,14.00
2023-10-20T15:36:48.247Z,14.00
2023-10-20T15:39:16.168Z,13.90
2023-10-20T15:41:43.100Z,14.00
2023-10-20T15:44:10.690Z,13.90
2023-10-20T15:46:37.590Z,13.80
2023-10-20T15:49:07.572Z,13.80
2023-10-20T15:51:34.396Z,13.80
2023-10-20T15:54:01.276Z,13.70
2023-10-20T15:56:29.093Z,13.80
2023-10-20T15:58:56.309Z,14.00
2023-10-20T16:01:26.226Z,13.80
2023-10-20T16:03:53.672Z,13.60
2023-10-20T16:06:20.636Z,13.70
2023-10-20T16:08:47.485Z,13.70
2023-10-20T16:11:14.314Z,13.70
2023-10-20T16:13:41.162Z,13.60
2023-10-20T16:16:08.420Z,13.70
2023-10-20T16:18:35.305Z,13.60
2023-10-20T16:21:02.273Z,13.50
2023-10-20T16:23:29.117Z,13.40
2023-10-20T16:25:57.055Z,13.30
2023-10-20T16:28:23.917Z,13.30
2023-10-20T16:30:51.085Z,13.30
2023-10-20T16:33:21.841Z,13.30
2023-10-20T16:35:55.698Z,13.20
2023-10-20T16:38:23.165Z,13.20
2023-10-20T16:40:52.670Z,13.30
2023-10-20T16:43:19.943Z,13.50
2023-10-20T16:45:48.217Z,13.70
2023-10-20T16:48:15.537Z,13.50
2023-10-20T16:50:43.039Z,13.60
2023-10-20T16:53:10.675Z,13.70
2023-10-20T16:55:38.678Z,13.70
2023-10-20T16:58:06.376Z,13.70
2023-10-20T17:00:34.124Z,13.50
2023-10-20T17:03:01.568Z,13.70
2023-10-20T17:05:28.584Z,13.60
2023-10-20T17:07:55.424Z,13.60
2023-10-20T17:10:22.458Z,13.60
2023-10-20T17:12:51.404Z,13.40
2023-10-20T17:15:19.068Z,13.30
2023-10-20T17:17:46.028Z,13.40
2023-10-20T17:20:12.999Z,13.30
2023-10-20T17:22:39.936Z,13.30
2023-10-20T17:25:07.042Z,13.30
2023-10-20T17:27:33.861Z,13.30
2023-10-20T17:30:00.725Z,13.30
2023-10-20T17:32:27.645Z,13.20
2023-10-20T17:34:54.449Z,13.20
2023-10-20T17:37:21.256Z,13.20
2023-10-20T17:39:48.202Z,13.20
2023-10-20T17:42:15.012Z,13.20
2023-10-20T17:44:41.919Z,13.10
2023-10-20T17:47:08.793Z,13.20
2023-10-20T17:49:35.883Z,13.00
2023-10-20T17:52:04.193Z,13.00
2023-10-20T17:54:31.117Z,13.10
2023-10-20T17:56:57.917Z,13.10
2023-10-20T17:59:24.826Z,13.10
2023-10-20T18:01:51.716Z,13.00
2023-10-20T18:04:18.788Z,12.90
2023-10-20T18:06:45.764Z,12.90
2023-10-20T18:09:12.966Z,12.90
2023-10-20T18:11:39.826Z,12.90
2023-10-20T18:14:06.670Z,13.10
2023-10-20T18:16:33.703Z,13.00
2023-10-20T18:19:00.526Z,12.90
2023-10-20T18:21:27.533Z,13.00
2023-10-20T18:23:58.489Z,13.20
2023-10-20T18:26:25.545Z,13.20
2023-10-20T18:28:52.599Z,13.10
2023-10-20T18:31:19.572Z,13.10
2023-10-20T18:33:46.991Z,13.10
2023-10-20T18:36:14.020Z,13.00
2023-10-20T18:38:40.985Z,13.00
2023-10-20T18:41:15.552Z,12.90
2023-10-20T18:43:42.993Z,12.90
2023-10-20T18:46:10.441Z,12.80
2023-10-20T18:48:37.487Z,12.90
2023-10-20T18:51:09.622Z,12.90
2023-10-20T18:53:36.682Z,12.90
2023-10-20T18:56:06.162Z,12.90
2023-10-20T18:58:33.039Z,12.90
2023-10-20T19:01:00.922Z,12.80
2023-10-20T19:03:28.033Z,12.80
2023-10-20T19:05:54.903Z,12.80
2023-10-20T19:08:21.774Z,12.80
2023-10-20T19:10:48.659Z,12.80
2023-10-20T19:13:16.349Z,12.80
2023-10-20T19:15:46.402Z,12.70
2023-10-20T19:18:13.386Z,12.70
2023-10-20T19:20:40.324Z,12.70
2023-10-20T19:23:09.869Z,12.70
2023-10-20T19:25:38.859Z,12.70
2023-10-20T19:28:07.323Z,12.80
2023-10-20T19:30:37.602Z,12.60
2023-10-20T19:33:04.998Z,12.70
2023-10-20T19:35:32.516Z,12.60
2023-10-20T19:38:00.088Z,12.70
2023-10-20T19:40:27.036Z,12.70
2023-10-20T19:42:54.017Z,12.70
2023-10-20T19:45:20.862Z,12.80
2023-10-20T19:47:47.896Z,12.80
2023-10-20T19:50:15.757Z,12.60
2023-10-20T19:52:42.717Z,12.60
2023-10-20T19:55:09.739Z,12.70
2023-10-20T19:57:36.625Z,12.50
2023-10-20T20:00:04.482Z,12.40
2023-10-20T20:02:39.747Z,12.40
2023-10-20T20:05:06.898Z,12.40
2023-10-20T20:07:33.851Z,12.40
2023-10-20T20:10:00.700Z,12.40
2023-10-20T20:12:27.502Z,12.30
2023-10-20T20:14:54.357Z,12.30
2023-10-20T20:17:21.457Z,12.50
2023-10-20T20:19:48.219Z,12.40
2023-10-20T20:22:15.203Z,12.30
2023-10-20T20:24:42.031Z,12.40
2023-10-20T20:27:09.768Z,12.30
2023-10-20T20:29:36.848Z,12.40
2023-10-20T20:32:04.341Z,12.40
2023-10-20T20:34:31.160Z,12.30
2023-10-20T20:36:57.997Z,12.30
2023-10-20T20:39:24.769Z,12.20
2023-10-20T20:41:52.867Z,12.30
2023-10-20T20:44:23.165Z,12.30
2023-10-20T20:46:50.125Z,12.20
2023-10-20T20:49:17.072Z,12.20
2023-10-20T20:51:47.029Z,12.20
2023-10-20T20:54:14.160Z,12.20
2023-10-20T20:56:41.398Z,12.10
2023-10-20T20:59:08.163Z,12.40
2023-10-20T21:01:35.022Z,12.30
2023-10-20T21:04:02.265Z,12.30
2023-10-20T21:06:29.439Z,12.30
2023-10-20T21:08:56.238Z,12.30
2023-10-20T21:11:23.034Z,12.30
2023-10-20T21:13:51.046Z,12.30
2023-10-20T21:16:18.327Z,12.40
2023-10-20T21:18:45.235Z,12.10
2023-10-20T21:21:14.735Z,12.30
2023-10-20T21:23:45.779Z,12.30
2023-10-20T21:26:15.569Z,12.40
2023-10-20T21:28:42.533Z,12.30
2023-10-20T21:31:09.332Z,12.50
2023-10-20T21:33:36.367Z,12.50
2023-10-20T21:36:04.191Z,12.50
2023-10-20T21:38:31.134Z,12.50
2023-10-20T21:40:58.623Z,12.40
2023-10-20T21:43:25.506Z,12.40
2023-10-20T21:45:56.654Z,12.50
2023-10-20T21:48:27.760Z,12.40
2023-10-20T21:50:59.252Z,12.30
2023-10-20T21:53:26.892Z,12.30
2023-10-20T21:56:04.826Z,12.30
2023-10-20T21:58:32.417Z,12.30
2023-10-20T22:00:59.662Z,12.40
2023-10-20T22:03:28.305Z,12.50
2023-10-20T22:05:55.485Z,12.40
2023-10-20T22:08:22.817Z,12.30
2023-10-20T22:10:49.865Z,12.30
2023-10-20T22:13:16.833Z,12.30
2023-10-20T22:15:43.924Z,12.40
2023-10-20T22:18:12.081Z,12.40
2023-10-20T22:20:39.597Z,12.40
2023-10-20T22:23:06.889Z,12.40
2023-10-20T22:25:35.094Z,12.30
2023-10-20T22:28:02.659Z,12.40
2023-10-20T22:30:29.544Z,12.40
2023-10-20T22:32:56.414Z,12.40
2023-10-20T22:35:24.460Z,12.40
2023-10-20T22:37:51.919Z,12.40
2023-10-20T22:40:19.286Z,12.50
2023-10-20T22:42:46.287Z,12.30
2023-10-20T22:45:13.130Z,12.30
2023-10-20T22:47:40.007Z,12.30
2023-10-20T22:50:08.866Z,12.30
2023-10-20T22:52:36.910Z,12.40
2023-10-20T22:55:05.123Z,12.30
2023-10-20T22:57:33.007Z,12.30
2023-10-20T23:00:00.229Z,12.40
2023-10-20T23:02:27.414Z,12.40
2023-10-20T23:04:54.370Z,12.40
2023-10-20T23:07:21.180Z,12.30
2023-10-20T23:09:47.980Z,12.30
2023-10-20T23:12:16.608Z,12.00
2023-10-20T23:14:43.776Z,12.20
2023-10-20T23:17:10.679Z,12.20
2023-10-20T23:19:37.634Z,12.20
2023-10-20T23:22:05.576Z,12.30
2023-10-20T23:24:32.454Z,12.30
2023-10-20T23:26:59.453Z,12.30
2023-10-20T23:29:26.444Z,12.40
2023-10-20T23:31:53.479Z,12.30
2023-10-20T23:34:20.348Z,12.20
2023-10-20T23:36:47.170Z,12.30
2023-10-20T23:39:14.028Z,12.20
2023-10-20T23:41:40.926Z,12.20
2023-10-20T23:44:07.771Z,12.20
2023-10-20T23:46:34.536Z,12.30
2023-10-20T23:49:01.339Z,12.30
2023-10-20T23:51:28.156Z,12.40
2023-10-20T23:53:55.022Z,12.30
2023-10-20T23:56:21.867Z,12.30
2023-10-20T23:58:48.720Z,12.30
